Time;durP1;ratioP1;P1;durP2;ratioP2;P2;SDS_P1;SDS_P2;PMS_P1;PMS_P2;Temp;Humidity;BMP_temperature;BMP_pressure;BME280_temperature;BME280_humidity;BME280_pressure;Samples;Min_cycle;Max_cycle;Signal;HPM_P1;HPM_P2
2023/05/20 00:00:24;;;;;;;;;16.75;15.00;;;;;15.17;66.15;100666.84;5076569;28;45440;-70
2023/05/20 00:02:49;;;;;;;;;14.25;14.00;;;;;15.12;67.14;100679.97;5076391;27;45323;-71
2023/05/20 00:05:15;;;;;;;;;15.25;14.00;;;;;15.01;67.31;100671.91;5075932;27;46501;-70
2023/05/20 00:07:41;;;;;;;;;15.75;15.00;;;;;14.76;66.92;100649.63;5075894;28;45548;-70
2023/05/20 00:10:06;;;;;;;;;11.50;10.75;;;;;14.78;67.32;100663.72;5076256;27;45433;-70
2023/05/20 00:12:33;;;;;;;;;15.00;13.75;;;;;14.76;67.59;100668.03;5076633;28;45336;-71
2023/05/20 00:14:59;;;;;;;;;15.25;15.00;;;;;14.74;67.92;100651.34;5075863;28;46698;-70
2023/05/20 00:17:27;;;;;;;;;17.50;15.00;;;;;14.76;67.87;100659.25;5058927;27;47196;-70
2023/05/20 00:19:52;;;;;;;;;16.00;16.00;;;;;14.71;67.69;100660.09;5075462;28;45531;-71
2023/05/20 00:22:18;;;;;;;;;16.50;15.50;;;;;14.76;68.00;100660.13;5078313;28;45277;-70
2023/05/20 00:24:44;;;;;;;;;17.75;16.25;;;;;14.69;68.38;100651.28;5074814;28;46503;-71
2023/05/20 00:27:09;;;;;;;;;15.25;14.25;;;;;14.70;68.53;100646.91;5075639;28;45487;-71
2023/05/20 00:29:35;;;;;;;;;16.00;15.75;;;;;14.60;68.05;100632.72;5079594;28;45330;-70
2023/05/20 00:32:00;;;;;;;;;15.00;14.25;;;;;14.57;68.01;100626.56;5079508;28;45300;-70
2023/05/20 00:34:26;;;;;;;;;18.00;16.00;;;;;14.66;68.72;100635.47;5078562;28;45492;-71
2023/05/20 00:36:51;;;;;;;;;16.75;16.00;;;;;14.56;69.13;100636.19;5077571;28;45361;-70
2023/05/20 00:39:17;;;;;;;;;19.00;17.25;;;;;14.51;69.22;100622.94;5078896;28;45505;-71
2023/05/20 00:41:42;;;;;;;;;18.50;16.75;;;;;14.52;69.55;100632.63;5079869;28;45527;-71
2023/05/20 00:44:08;;;;;;;;;15.75;14.25;;;;;14.41;69.35;100628.06;5079165;28;45560;-71
2023/05/20 00:46:34;;;;;;;;;18.00;17.50;;;;;14.49;69.28;100636.94;5078594;27;45514;-71
2023/05/20 00:49:00;;;;;;;;;15.00;14.50;;;;;14.34;69.39;100598.13;5079158;28;45617;-71
2023/05/20 00:51:26;;;;;;;;;22.00;16.00;;;;;14.36;69.82;100601.69;5079102;27;45504;-70
2023/05/20 00:53:53;;;;;;;;;15.50;14.00;;;;;14.31;69.75;100590.22;5078972;28;45337;-71
2023/05/20 00:56:20;;;;;;;;;16.00;13.25;;;;;14.27;69.93;100585.78;5077183;28;45383;-71
2023/05/20 00:58:46;;;;;;;;;17.00;14.50;;;;;14.29;69.90;100584.06;5078525;28;45590;-71
2023/05/20 01:01:12;;;;;;;;;19.25;16.50;;;;;14.29;70.66;100582.31;5078966;28;45492;-71
2023/05/20 01:03:38;;;;;;;;;20.75;16.00;;;;;14.26;70.62;100574.38;5077958;28;46107;-71
2023/05/20 01:06:03;;;;;;;;;17.50;14.50;;;;;14.25;70.85;100564.75;5078627;28;45435;-71
2023/05/20 01:08:29;;;;;;;;;14.50;14.25;;;;;14.28;71.06;100567.44;5073757;27;45392;-72
2023/05/20 01:11:24;;;;;;;;;13.50;13.50;;;;;14.24;70.18;100565.59;5066272;28;45469;-71
2023/05/20 01:13:54;;;;;;;;;17.50;15.00;;;;;14.17;71.43;100570.75;5077949;28;46692;-71
2023/05/20 01:16:23;;;;;;;;;17.25;14.75;;;;;14.23;70.52;100570.84;5062628;28;45505;-71
2023/05/20 01:18:51;;;;;;;;;17.00;13.50;;;;;14.19;70.57;100551.50;5078157;28;45544;-71
2023/05/20 01:21:17;;;;;;;;;11.25;11.25;;;;;14.21;70.86;100562.06;5078681;28;45452;-71
2023/05/20 01:23:43;;;;;;;;;16.25;12.00;;;;;14.23;71.59;100561.19;5077946;28;46280;-71
2023/05/20 01:26:15;;;;;;;;;14.00;13.00;;;;;14.24;71.97;100551.56;5077902;28;45351;-71
2023/05/20 01:28:44;;;;;;;;;15.50;14.25;;;;;14.34;71.16;100550.84;5077961;28;45407;-71
2023/05/20 01:31:18;;;;;;;;;14.25;12.75;;;;;14.23;71.51;100537.56;5078544;27;46566;-71
2023/05/20 01:33:44;;;;;;;;;15.00;13.00;;;;;14.28;72.84;100548.13;5077634;28;46651;-71
2023/05/20 01:36:11;;;;;;;;;18.00;13.00;;;;;14.36;72.13;100546.50;5077336;27;45398;-71
2023/05/20 01:38:40;;;;;;;;;16.25;14.25;;;;;14.33;72.12;100523.69;5077582;28;45480;-71
2023/05/20 01:41:06;;;;;;;;;15.25;15.25;;;;;14.34;73.30;100529.81;5068035;28;45459;-71
2023/05/20 01:43:32;;;;;;;;;14.75;14.00;;;;;14.33;72.44;100534.19;5077868;28;46242;-71
2023/05/20 01:45:57;;;;;;;;;17.00;15.75;;;;;14.13;73.78;100512.88;5078225;27;45804;-71
2023/05/20 01:48:23;;;;;;;;;14.50;13.25;;;;;14.27;72.45;100518.34;5077556;27;45796;-71
2023/05/20 01:50:48;;;;;;;;;15.50;13.00;;;;;14.23;73.33;100510.41;5078608;28;47042;-71
2023/05/20 01:53:14;;;;;;;;;15.25;13.25;;;;;14.21;72.75;100496.38;5078031;27;46470;-71
2023/05/20 01:55:39;;;;;;;;;18.00;14.00;;;;;14.41;73.36;100526.44;5077787;28;45393;-71
2023/05/20 01:58:05;;;;;;;;;16.25;14.00;;;;;14.38;72.00;100500.09;5077506;28;45331;-70
2023/05/20 02:00:34;;;;;;;;;17.00;14.00;;;;;14.24;72.64;100496.38;5078370;28;45377;-71
2023/05/20 02:03:02;;;;;;;;;16.00;14.25;;;;;14.31;73.14;100519.28;5077633;28;45583;-71
2023/05/20 02:05:28;;;;;;;;;18.50;16.75;;;;;14.39;73.52;100527.28;5064415;28;45532;-71
2023/05/20 02:07:53;;;;;;;;;15.25;13.00;;;;;14.37;73.35;100514.09;5073232;28;45473;-71
2023/05/20 02:10:19;;;;;;;;;15.50;14.25;;;;;14.44;72.45;100513.34;5077119;28;45220;-71
2023/05/20 02:12:46;;;;;;;;;14.00;13.00;;;;;14.27;72.36;100478.94;5078059;27;46380;-71
2023/05/20 02:15:12;;;;;;;;;12.50;12.00;;;;;14.40;72.89;100498.38;5076930;28;45758;-71
2023/05/20 02:17:38;;;;;;;;;13.00;12.00;;;;;14.40;72.76;100489.59;5076925;28;45410;-71
2023/05/20 02:20:06;;;;;;;;;12.50;11.25;;;;;14.35;72.84;100478.16;5078570;28;45427;-71
2023/05/20 02:22:32;;;;;;;;;10.50;10.00;;;;;14.37;72.73;100497.47;5078037;28;45483;-71
2023/05/20 02:24:57;;;;;;;;;10.25;9.50;;;;;14.30;71.40;100460.59;5078258;28;45349;-70
2023/05/20 02:27:23;;;;;;;;;8.00;7.50;;;;;13.83;70.89;100382.00;5078425;28;45447;-71
2023/05/20 02:29:48;;;;;;;;;10.25;9.00;;;;;14.32;71.04;100465.84;5078869;28;45295;-71
2023/05/20 02:32:14;;;;;;;;;10.25;9.50;;;;;14.38;70.75;100465.06;5078030;28;45652;-71
2023/05/20 02:34:39;;;;;;;;;8.00;8.00;;;;;14.39;71.03;100479.97;5077500;28;45472;-70
2023/05/20 02:37:05;;;;;;;;;10.25;10.25;;;;;14.27;71.43;100467.53;5077104;28;45406;-71
2023/05/20 02:39:30;;;;;;;;;12.50;12.25;;;;;14.07;73.34;100464.66;5075922;28;45345;-70
2023/05/20 02:41:56;;;;;;;;;15.75;11.50;;;;;14.21;72.81;100472.72;5075376;28;46477;-70
2023/05/20 02:44:23;;;;;;;;;13.00;11.75;;;;;14.03;73.92;100441.81;5076337;27;45505;-71
2023/05/20 02:46:48;;;;;;;;;15.00;14.00;;;;;14.20;73.49;100471.81;5076950;28;45383;-70
2023/05/20 02:49:14;;;;;;;;;10.75;10.75;;;;;14.25;73.33;100485.03;5066018;28;45351;-70
2023/05/20 02:51:40;;;;;;;;;10.00;9.50;;;;;14.28;72.63;100474.56;5082343;27;46596;-70
2023/05/20 02:54:05;;;;;;;;;6.00;6.00;;;;;14.37;72.96;100486.94;5066103;28;45445;-70
2023/05/20 02:56:31;;;;;;;;;13.00;12.00;;;;;14.30;72.73;100472.81;5075449;27;45401;-71
2023/05/20 02:58:56;;;;;;;;;10.75;10.25;;;;;14.30;72.48;100475.44;5077284;28;45639;-71
2023/05/20 03:01:22;;;;;;;;;12.00;12.00;;;;;14.27;72.90;100464.91;5075400;28;47226;-70
2023/05/20 03:03:48;;;;;;;;;12.75;11.00;;;;;14.22;72.64;100453.44;5058901;28;45520;-70
2023/05/20 03:06:13;;;;;;;;;9.75;8.75;;;;;14.34;72.16;100461.50;5089363;27;45412;-71
2023/05/20 03:08:41;;;;;;;;;11.50;11.50;;;;;14.41;72.60;100473.88;5089396;27;45238;-71
2023/05/20 03:11:07;;;;;;;;;12.75;12.00;;;;;14.35;72.11;100465.91;5069442;28;45518;-71
2023/05/20 03:13:33;;;;;;;;;15.50;14.00;;;;;14.36;73.54;100459.75;5076384;28;46166;-70
2023/05/20 03:16:00;;;;;;;;;10.75;10.25;;;;;14.40;73.12;100465.94;5092451;27;45460;-71
2023/05/20 03:18:26;;;;;;;;;12.00;11.00;;;;;14.46;72.89;100477.44;5076756;28;45714;-70
2023/05/20 03:20:51;;;;;;;;;9.75;9.00;;;;;14.35;73.07;100465.91;5076557;28;45543;-71
2023/05/20 03:23:16;;;;;;;;;11.75;11.25;;;;;14.43;72.45;100468.63;5076307;27;45642;-71
2023/05/20 03:25:42;;;;;;;;;4.00;4.00;;;;;14.42;71.33;100454.59;5088571;27;45230;-70
2023/05/20 03:28:08;;;;;;;;;13.00;13.00;;;;;14.23;71.80;100442.97;5064057;28;45424;-70
2023/05/20 03:30:33;;;;;;;;;10.50;10.25;;;;;14.32;72.75;100461.50;5076768;28;46550;-70
2023/05/20 03:33:01;;;;;;;;;10.75;10.00;;;;;14.26;72.89;100452.63;5076610;28;45464;-71
2023/05/20 03:35:27;;;;;;;;;8.25;8.00;;;;;14.29;72.27;100455.31;5076116;28;45484;-70
2023/05/20 03:37:52;;;;;;;;;11.25;11.00;;;;;14.10;73.33;100434.03;5077529;28;45233;-70
2023/05/20 03:40:19;;;;;;;;;12.75;11.50;;;;;14.10;72.57;100434.03;5075062;27;45512;-70
2023/05/20 03:42:45;;;;;;;;;12.50;10.75;;;;;14.15;72.73;100444.63;5076272;28;45522;-71
2023/05/20 03:45:11;;;;;;;;;10.00;9.50;;;;;14.15;73.63;100449.88;5076162;28;45371;-71
2023/05/20 03:47:36;;;;;;;;;11.00;9.50;;;;;13.99;74.05;100438.25;5076063;28;45554;-70
2023/05/20 03:50:02;;;;;;;;;11.25;10.00;;;;;13.98;74.24;100435.59;5072199;28;47783;-70
2023/05/20 03:52:27;;;;;;;;;11.00;10.50;;;;;13.98;73.63;100438.22;5076517;28;45354;-71
2023/05/20 03:54:53;;;;;;;;;9.75;9.50;;;;;14.12;73.66;100460.31;5077561;28;45478;-70
2023/05/20 03:57:18;;;;;;;;;11.50;9.50;;;;;14.11;73.29;100448.94;5080315;28;45374;-70
2023/05/20 03:59:44;;;;;;;;;11.00;11.00;;;;;14.18;73.64;100457.78;5078311;28;45382;-70
2023/05/20 04:02:10;;;;;;;;;11.00;10.00;;;;;14.12;73.96;100441.94;5079474;28;45359;-70
2023/05/20 04:04:36;;;;;;;;;11.00;10.00;;;;;13.93;74.33;100425.06;5077934;28;45547;-70
2023/05/20 04:07:03;;;;;;;;;10.00;9.25;;;;;14.09;73.80;100445.41;5079090;28;45467;-70
2023/05/20 04:09:29;;;;;;;;;10.25;10.00;;;;;14.07;73.45;100438.38;5079302;27;46168;-71
2023/05/20 04:11:55;;;;;;;;;10.50;9.25;;;;;14.05;73.70;100442.72;5079641;28;45422;-71
2023/05/20 04:14:21;;;;;;;;;11.25;10.25;;;;;14.08;73.44;100442.75;5062463;28;45492;-70
2023/05/20 04:16:49;;;;;;;;;9.00;9.00;;;;;13.93;73.40;100417.16;5079286;27;45449;-70
2023/05/20 04:19:14;;;;;;;;;10.75;10.00;;;;;14.05;73.43;100432.22;5077619;28;47061;-70
2023/05/20 04:21:42;;;;;;;;;13.50;11.75;;;;;14.00;73.42;100426.88;5065389;28;45358;-71
2023/05/20 04:24:07;;;;;;;;;10.25;9.75;;;;;13.99;73.15;100438.25;5076147;28;45819;-70
2023/05/20 04:26:34;;;;;;;;;11.50;9.50;;;;;13.86;73.22;100405.69;5078177;28;45445;-70
2023/05/20 04:29:02;;;;;;;;;9.75;9.00;;;;;14.00;73.33;100432.13;5078974;28;46413;-70
2023/05/20 04:31:29;;;;;;;;;11.25;10.50;;;;;13.85;73.14;100408.31;5078819;28;45591;-71
2023/05/20 04:33:56;;;;;;;;;10.00;9.75;;;;;13.93;73.90;100432.94;5078546;28;45465;-70
2023/05/20 04:36:27;;;;;;;;;10.75;10.25;;;;;13.82;74.56;100418.75;5078582;28;45380;-70
2023/05/20 04:38:53;;;;;;;;;11.75;11.50;;;;;13.83;73.56;100425.78;5078467;28;46140;-70
2023/05/20 04:41:19;;;;;;;;;9.00;7.50;;;;;13.67;74.68;100424.66;5077624;28;45676;-71
2023/05/20 04:43:44;;;;;;;;;8.50;8.50;;;;;13.60;74.00;100423.66;5078875;28;45285;-71
2023/05/20 04:46:10;;;;;;;;;9.00;9.00;;;;;13.57;73.97;100412.22;5078123;28;45339;-71
2023/05/20 04:48:36;;;;;;;;;8.75;7.00;;;;;13.62;74.16;100418.44;5077060;28;46496;-70
2023/05/20 04:51:02;;;;;;;;;11.25;10.00;;;;;13.61;74.15;100414.94;5077492;28;45438;-70
2023/05/20 04:53:29;;;;;;;;;10.75;9.75;;;;;13.69;74.37;100407.19;5078451;28;45623;-70
2023/05/20 04:55:55;;;;;;;;;9.75;9.50;;;;;13.68;73.86;100405.41;5057864;28;45556;-70
2023/05/20 04:58:23;;;;;;;;;10.50;9.50;;;;;13.70;73.40;100409.81;5077622;28;45431;-70
2023/05/20 05:00:50;;;;;;;;;11.50;9.75;;;;;13.49;74.25;100396.41;5077196;28;45363;-70
2023/05/20 05:03:15;;;;;;;;;11.75;9.00;;;;;13.55;74.09;100414.84;5078454;28;45519;-71
2023/05/20 05:05:41;;;;;;;;;10.75;10.25;;;;;13.47;74.59;100393.75;5077291;28;45425;-70
2023/05/20 05:08:08;;;;;;;;;9.75;9.00;;;;;13.52;74.66;100401.66;5078264;28;46623;-70
2023/05/20 05:10:34;;;;;;;;;10.25;8.50;;;;;13.68;74.33;100414.16;5073898;28;45267;-70
2023/05/20 05:13:00;;;;;;;;;10.25;10.25;;;;;13.65;74.48;100400.13;5078861;27;45346;-71
2023/05/20 05:15:26;;;;;;;;;12.00;11.00;;;;;13.56;74.88;100387.75;5094058;27;45602;-70
2023/05/20 05:17:52;;;;;;;;;10.00;9.00;;;;;13.66;74.38;100410.63;5078303;28;46082;-70
2023/05/20 05:20:18;;;;;;;;;12.25;11.00;;;;;13.37;73.55;100375.19;5077873;28;45564;-70
2023/05/20 05:22:44;;;;;;;;;11.00;9.00;;;;;13.33;74.55;100383.03;5078666;28;45355;-70
2023/05/20 05:25:10;;;;;;;;;11.00;11.00;;;;;13.36;75.37;100397.03;5078488;28;45213;-70
2023/05/20 05:27:36;;;;;;;;;9.00;9.00;;;;;13.49;75.62;100420.00;5078239;27;46571;-71
2023/05/20 05:30:05;;;;;;;;;13.25;11.25;;;;;13.51;76.23;100407.78;5077464;28;45338;-70
2023/05/20 05:32:31;;;;;;;;;9.00;9.00;;;;;13.53;75.94;100395.59;5078401;27;45797;-71
2023/05/20 05:34:57;;;;;;;;;9.75;9.75;;;;;13.59;75.60;100395.66;5078517;28;45503;-71
2023/05/20 05:37:22;;;;;;;;;12.00;9.00;;;;;13.73;75.40;100409.88;5078282;28;45526;-71
2023/05/20 05:39:48;;;;;;;;;13.25;11.75;;;;;13.80;76.36;100410.84;5077348;28;45595;-71
2023/05/20 05:42:14;;;;;;;;;12.25;11.75;;;;;13.77;76.61;100408.19;5078379;28;45520;-71
2023/05/20 05:44:39;;;;;;;;;11.00;9.50;;;;;13.76;76.89;100402.91;5077886;28;45524;-71
2023/05/20 05:47:05;;;;;;;;;22.00;21.50;;;;;13.85;75.96;100400.44;5070328;28;46274;-71
2023/05/20 05:49:31;;;;;;;;;11.75;11.75;;;;;14.05;74.66;100401.56;5068981;28;45476;-71
2023/05/20 05:51:57;;;;;;;;;14.50;12.50;;;;;14.11;75.24;100412.16;5078605;28;45400;-71
2023/05/20 05:54:23;;;;;;;;;16.50;13.25;;;;;14.11;75.37;100380.63;5078290;28;45543;-71
2023/05/20 05:56:52;;;;;;;;;17.50;16.00;;;;;14.16;74.59;100377.19;5070192;28;46629;-71
2023/05/20 05:59:18;;;;;;;;;15.00;14.50;;;;;14.31;74.93;100385.25;5075433;28;45538;-71
2023/05/20 06:01:44;;;;;;;;;14.00;13.75;;;;;14.35;75.12;100387.06;5077346;28;45428;-71
2023/05/20 06:04:10;;;;;;;;;10.75;10.00;;;;;14.45;74.71;100372.28;5077977;28;45242;-71
2023/05/20 06:06:36;;;;;;;;;12.50;11.75;;;;;14.63;73.64;100375.16;5076406;28;47690;-71
2023/05/20 06:09:01;;;;;;;;;13.25;12.00;;;;;14.96;73.63;100394.78;5077225;27;45632;-71
2023/05/20 06:11:27;;;;;;;;;18.75;16.00;;;;;15.21;72.69;100393.22;5076185;28;45414;-71
2023/05/20 06:13:52;;;;;;;;;14.00;14.00;;;;;15.41;72.12;100384.63;5076852;28;45587;-71
2023/05/20 06:16:18;;;;;;;;;13.50;12.75;;;;;15.63;71.47;100368.09;5076809;28;46321;-71
2023/05/20 06:18:45;;;;;;;;;13.50;12.25;;;;;15.93;70.85;100376.22;5075797;28;45788;-70
2023/05/20 06:21:11;;;;;;;;;13.25;12.25;;;;;16.16;70.05;100369.31;5077444;28;45382;-71
2023/05/20 06:23:36;;;;;;;;;14.00;13.25;;;;;16.26;70.12;100367.59;5077622;27;45430;-71
2023/05/20 06:26:02;;;;;;;;;14.50;14.50;;;;;16.45;69.61;100379.97;5077658;28;46343;-71
2023/05/20 06:28:28;;;;;;;;;12.25;12.00;;;;;16.47;69.03;100380.84;5076634;28;45443;-71
2023/05/20 06:30:54;;;;;;;;;13.25;13.25;;;;;16.74;68.07;100381.78;5070642;28;45383;-71
2023/05/20 06:33:24;;;;;;;;;11.00;11.00;;;;;16.80;68.16;100355.41;5067166;28;45377;-71
2023/05/20 06:35:51;;;;;;;;;14.50;13.75;;;;;17.05;67.53;100350.19;5056763;28;46411;-71
2023/05/20 06:38:16;;;;;;;;;12.25;11.25;;;;;17.28;66.74;100366.03;5072265;28;45352;-71
2023/05/20 06:40:42;;;;;;;;;13.00;11.33;;;;;17.44;66.40;100365.13;5038872;28;45505;-71
2023/05/20 06:43:07;;;;;;;;;12.00;12.00;;;;;17.47;66.26;100353.72;5038499;28;45609;-72
2023/05/20 06:45:33;;;;;;;;;12.25;12.00;;;;;17.63;65.33;100358.06;5056660;28;46511;-71
2023/05/20 06:47:59;;;;;;;;;12.25;12.00;;;;;18.02;64.83;100374.72;5056494;28;45538;-71
2023/05/20 06:50:24;;;;;;;;;14.00;11.00;;;;;18.17;64.54;100360.59;5056436;28;45873;-70
2023/05/20 06:52:50;;;;;;;;;13.00;12.33;;;;;18.59;63.67;100369.19;5055463;28;45572;-70
2023/05/20 06:55:16;;;;;;;;;11.67;11.67;;;;;18.93;62.94;100362.84;5055305;28;46029;-71
2023/05/20 06:57:41;;;;;;;;;11.33;10.67;;;;;19.16;62.04;100384.72;5038381;28;45533;-71
2023/05/20 07:00:08;;;;;;;;;11.33;11.00;;;;;19.27;61.74;100374.91;5072316;28;45453;-71
2023/05/20 07:02:33;;;;;;;;;16.25;15.00;;;;;19.41;61.72;100381.88;5056642;28;45365;-71
2023/05/20 07:04:59;;;;;;;;;12.67;12.00;;;;;19.33;61.02;100362.50;5056050;28;45252;-71
2023/05/20 07:07:24;;;;;;;;;16.00;13.00;;;;;19.23;61.51;100364.38;5056284;28;45395;-71
2023/05/20 07:09:50;;;;;;;;;11.67;11.00;;;;;19.28;62.01;100344.03;5056546;28;45462;-71
2023/05/20 07:12:15;;;;;;;;;22.50;22.50;;;;;19.52;62.04;100363.22;5071895;28;45465;-71
2023/05/20 07:14:41;;;;;;;;;13.00;12.33;;;;;19.67;61.47;100363.94;5055800;28;46381;-71
2023/05/20 07:17:07;;;;;;;;;7.33;6.33;;;;;19.81;61.56;100358.50;5071818;28;45579;-71
2023/05/20 07:19:33;;;;;;;;;14.33;14.00;;;;;20.02;60.91;100364.50;5056257;28;45402;-71
2023/05/20 07:21:59;;;;;;;;;17.00;17.00;;;;;19.48;60.14;100289.06;5037331;28;45579;-71
2023/05/20 07:24:24;;;;;;;;;14.67;13.00;;;;;19.78;61.20;100382.44;5055215;28;46205;-71
2023/05/20 07:26:50;;;;;;;;;12.67;10.00;;;;;19.50;61.04;100368.53;5056072;28;45476;-71
2023/05/20 07:29:16;;;;;;;;;12.33;9.33;;;;;19.60;61.19;100378.16;5037540;28;45589;-71
2023/05/20 07:31:41;;;;;;;;;11.33;11.33;;;;;19.63;61.34;100374.59;5055983;28;45588;-71
2023/05/20 07:34:07;;;;;;;;;12.33;11.33;;;;;19.83;60.81;100383.22;5056121;28;45373;-71
2023/05/20 07:36:33;;;;;;;;;14.67;12.67;;;;;19.79;60.46;100376.22;5056174;28;45324;-71
2023/05/20 07:38:58;;;;;;;;;9.67;9.33;;;;;19.73;60.16;100368.31;5056287;28;45343;-71
2023/05/20 07:41:24;;;;;;;;;10.33;10.00;;;;;19.73;61.27;100372.75;5055627;28;45672;-71
2023/05/20 07:43:49;;;;;;;;;9.67;9.67;;;;;19.71;61.72;100380.72;5055654;28;46494;-72
2023/05/20 07:46:15;;;;;;;;;11.67;9.00;;;;;19.64;62.02;100384.31;5056092;28;45518;-71
2023/05/20 07:48:41;;;;;;;;;7.33;7.00;;;;;19.57;61.54;100383.47;5034875;28;45390;-71
2023/05/20 07:51:06;;;;;;;;;12.00;11.00;;;;;19.42;60.97;100373.03;5052587;28;45373;-71
2023/05/20 07:53:32;;;;;;;;;13.67;12.00;;;;;19.38;60.54;100366.00;5055943;28;45450;-71
2023/05/20 07:55:58;;;;;;;;;12.33;11.00;;;;;19.47;60.39;100366.78;5054554;28;45450;-71
2023/05/20 07:58:24;;;;;;;;;12.67;12.67;;;;;19.53;60.72;100368.50;5056153;28;45345;-71
2023/05/20 08:00:52;;;;;;;;;11.67;10.67;;;;;19.60;61.38;100379.94;5054380;28;45538;-71
2023/05/20 08:03:18;;;;;;;;;11.00;9.67;;;;;19.68;60.19;100372.78;5054709;28;46175;-71
2023/05/20 08:05:43;;;;;;;;;9.33;9.33;;;;;19.91;58.99;100369.03;5055328;28;45441;-71
2023/05/20 08:08:09;;;;;;;;;9.00;8.33;;;;;20.05;56.77;100356.47;5038181;28;45485;-71
2023/05/20 08:10:35;;;;;;;;;11.00;8.67;;;;;20.15;56.52;100350.16;5055179;28;45399;-72
2023/05/20 08:13:01;;;;;;;;;10.00;10.00;;;;;20.39;56.33;100367.56;5055512;28;45550;-71
2023/05/20 08:15:26;;;;;;;;;11.00;11.00;;;;;20.41;56.82;100368.44;5029380;28;45322;-71
2023/05/20 08:17:52;;;;;;;;;10.33;9.00;;;;;19.87;57.08;100246.25;5047522;28;45365;-70
2023/05/20 08:20:17;;;;;;;;;11.33;11.00;;;;;20.67;56.03;100361.88;5055440;28;45389;-71
2023/05/20 08:22:43;;;;;;;;;11.33;8.00;;;;;20.70;56.13;100360.97;5052734;28;45586;-71
2023/05/20 08:25:09;;;;;;;;;12.33;9.33;;;;;20.62;55.66;100361.09;5054236;28;46116;-72
2023/05/20 08:27:36;;;;;;;;;12.33;9.67;;;;;20.47;56.24;100362.13;5054393;28;45406;-71
2023/05/20 08:30:02;;;;;;;;;12.33;10.00;;;;;20.55;55.81;100362.94;5054554;28;45487;-72
2023/05/20 08:32:28;;;;;;;;;9.33;8.67;;;;;20.72;55.76;100378.63;5053804;28;45310;-71
2023/05/20 08:34:53;;;;;;;;;11.00;10.00;;;;;20.81;55.79;100367.88;5065754;28;45579;-71
2023/05/20 08:37:21;;;;;;;;;9.00;8.67;;;;;20.98;54.38;100361.44;5091703;27;45487;-71
2023/05/20 08:39:48;;;;;;;;;9.00;9.00;;;;;21.10;54.11;100360.38;5075910;28;45552;-71
2023/05/20 08:42:15;;;;;;;;;9.00;9.00;;;;;21.46;54.06;100356.22;5077668;28;47817;-71
2023/05/20 08:44:42;;;;;;;;;9.00;8.67;;;;;22.24;52.35;100372.47;5079258;28;45246;-71
2023/05/20 08:47:09;;;;;;;;;8.00;8.00;;;;;23.10;51.48;100369.69;5079224;27;45370;-71
2023/05/20 08:49:34;;;;;;;;;11.33;9.00;;;;;23.88;48.40;100354.34;5079347;28;45320;-71
2023/05/20 08:52:00;;;;;;;;;9.67;9.00;;;;;24.16;47.37;100353.56;5078647;28;45394;-71
2023/05/20 08:54:39;;;;;;;;;9.00;9.00;;;;;24.07;49.14;100356.47;5078098;28;45519;-71
2023/05/20 08:57:04;;;;;;;;;19.00;17.67;;;;;24.42;45.69;100352.78;5078666;27;45436;-72
2023/05/20 08:59:30;;;;;;;;;10.00;7.00;;;;;25.44;44.32;100358.44;5077825;28;45471;-72
2023/05/20 09:01:56;;;;;;;;;9.00;8.00;;;;;25.41;45.75;100353.22;5077387;28;47908;-72
2023/05/20 09:04:21;;;;;;;;;10.67;10.00;;;;;25.27;45.03;100345.66;5076704;28;45407;-71
2023/05/20 09:06:50;;;;;;;;;17.00;15.00;;;;;24.91;43.59;100353.06;5078254;28;45496;-72
2023/05/20 09:09:15;;;;;;;;;23.00;21.25;;;;;24.86;44.57;100363.03;5079117;28;45447;-71
2023/05/20 09:11:41;;;;;;;;;13.67;12.33;;;;;24.85;45.69;100359.50;5078728;28;46010;-71
2023/05/20 09:14:07;;;;;;;;;13.33;13.00;;;;;24.56;45.82;100361.25;5094077;27;45409;-71
2023/05/20 09:16:33;;;;;;;;;11.33;9.00;;;;;24.24;46.46;100343.53;5077432;28;45441;-72
2023/05/20 09:18:58;;;;;;;;;10.33;9.67;;;;;23.91;46.08;100350.72;5078418;28;45337;-72
2023/05/20 09:21:28;;;;;;;;;11.00;10.00;;;;;23.70;47.23;100371.69;5078170;28;46240;-71
2023/05/20 09:23:56;;;;;;;;;16.33;16.00;;;;;23.30;46.99;100355.84;5077349;28;45261;-71
2023/05/20 09:26:23;;;;;;;;;12.00;11.33;;;;;22.84;47.90;100364.06;5078633;28;45511;-71
2023/05/20 09:28:50;;;;;;;;;10.00;9.67;;;;;22.78;47.83;100372.19;5059262;28;45268;-72
2023/05/20 09:31:16;;;;;;;;;10.33;9.33;;;;;22.58;48.87;100338.03;5056480;28;46261;-71
2023/05/20 09:33:41;;;;;;;;;9.00;8.00;;;;;22.67;48.96;100358.25;5057976;28;45494;-71
2023/05/20 09:36:08;;;;;;;;;9.33;8.00;;;;;22.84;48.84;100368.50;5058032;28;45173;-71
2023/05/20 09:38:37;;;;;;;;;11.67;11.00;;;;;22.68;46.90;100365.34;5057997;28;45175;-71
2023/05/20 09:41:07;;;;;;;;;10.00;9.33;;;;;22.78;47.30;100368.63;5058059;28;46160;-71
2023/05/20 09:43:33;;;;;;;;;10.00;10.00;;;;;22.81;48.02;100355.25;5057846;28;45484;-72
2023/05/20 09:46:00;;;;;;;;;11.67;10.00;;;;;22.81;47.28;100353.47;5073490;28;45369;-72
2023/05/20 09:48:26;;;;;;;;;14.67;12.67;;;;;22.82;47.79;100365.88;5057916;28;45608;-72
2023/05/20 09:50:55;;;;;;;;;14.00;13.00;;;;;22.72;47.13;100352.78;5073297;28;45535;-71
2023/05/20 09:53:22;;;;;;;;;11.00;10.67;;;;;22.67;47.72;100344.94;5056551;28;45344;-72
2023/05/20 09:55:51;;;;;;;;;16.33;15.00;;;;;22.67;47.37;100344.94;5074052;28;45535;-71
2023/05/20 09:58:19;;;;;;;;;11.00;10.00;;;;;22.70;47.75;100349.28;5076549;27;45547;-71
2023/05/20 10:00:45;;;;;;;;;29.25;25.50;;;;;22.89;47.60;100357.75;5076187;27;45604;-72
2023/05/20 10:03:11;;;;;;;;;13.33;11.33;;;;;22.94;47.05;100358.50;5077357;28;45173;-71
2023/05/20 10:05:56;;;;;;;;;9.33;9.33;;;;;22.80;46.96;100353.50;5075854;28;45254;-71
2023/05/20 10:09:01;;;;;;;;;11.67;11.00;;;;;22.74;45.91;100361.63;5077548;27;45361;-71
2023/05/20 10:11:47;;;;;;;;;11.00;9.00;;;;;22.66;46.61;100356.50;5054888;28;45541;-71
2023/05/20 10:14:33;;;;;;;;;11.67;10.00;;;;;22.44;46.88;100343.66;5043930;28;45300;-72
2023/05/20 10:17:24;;;;;;;;;9.33;9.00;;;;;22.51;47.07;100356.84;5075953;28;45258;-72
2023/05/20 10:19:56;;;;;;;;;15.00;12.00;;;;;22.33;46.65;100359.00;5077553;28;45379;-71
2023/05/20 10:22:29;;;;;;;;;12.67;11.33;;;;;21.99;47.45;100338.38;5077012;28;46371;-71
2023/05/20 10:24:59;;;;;;;;;15.00;14.00;;;;;22.10;47.24;100339.94;5076029;28;45426;-71
2023/05/20 10:27:25;;;;;;;;;14.00;12.67;;;;;22.35;46.76;100345.66;5075495;27;45535;-71
2023/05/20 10:29:56;;;;;;;;;13.00;11.00;;;;;22.46;47.26;100340.94;5075723;28;45484;-70
2023/05/20 10:32:26;;;;;;;;;11.67;11.00;;;;;22.50;46.55;100326.69;5076235;28;45575;-71
2023/05/20 10:34:52;;;;;;;;;10.00;10.00;;;;;22.74;46.54;100351.88;5076371;28;45402;-71
2023/05/20 10:37:24;;;;;;;;;9.33;9.00;;;;;22.99;45.93;100351.28;5076379;28;45409;-71
2023/05/20 10:39:50;;;;;;;;;10.00;10.00;;;;;23.13;46.12;100335.84;5075902;28;45650;-71
2023/05/20 10:42:15;;;;;;;;;10.33;10.00;;;;;23.21;44.24;100325.88;5075317;28;45398;-71
2023/05/20 10:44:45;;;;;;;;;9.33;8.33;;;;;23.53;45.25;100336.59;5076101;28;45480;-71
2023/05/20 10:47:12;;;;;;;;;12.00;10.00;;;;;23.82;44.70;100343.84;5074873;28;45563;-71
2023/05/20 10:49:47;;;;;;;;;14.00;13.00;;;;;23.82;44.58;100346.53;5076780;28;45477;-71
2023/05/20 10:52:16;;;;;;;;;12.00;10.67;;;;;24.02;43.79;100349.47;5076232;28;46092;-71
2023/05/20 10:54:46;;;;;;;;;12.00;11.00;;;;;24.05;42.86;100329.84;5075523;28;45454;-72
2023/05/20 10:57:12;;;;;;;;;11.00;10.33;;;;;24.00;43.49;100327.31;5073314;28;45411;-71
2023/05/20 10:59:39;;;;;;;;;11.00;11.00;;;;;23.89;43.52;100334.75;5075975;28;45394;-72
2023/05/20 11:02:05;;;;;;;;;12.67;11.00;;;;;24.09;42.56;100331.50;5075188;28;45332;-72
2023/05/20 11:04:31;;;;;;;;;9.00;9.00;;;;;24.13;42.83;100301.16;5065552;28;45597;-72
2023/05/20 11:06:57;;;;;;;;;8.67;7.33;;;;;24.42;42.26;100318.06;5066189;28;45472;-72
2023/05/20 11:09:23;;;;;;;;;12.33;12.00;;;;;24.56;42.72;100320.34;5076132;28;45413;-72